sensor_id;sensor_type;location;lat;lon;timestamp;P1;durP1;ratioP1;P2;durP2;ratioP2
54599;SDS011;40500;51.084;16.958;2022-07-06T00:00:12;6.60;;;5.10;;
54599;SDS011;40500;51.084;16.958;2022-07-06T00:02:42;6.80;;;4.40;;
54599;SDS011;40500;51.084;16.958;2022-07-06T00:05:13;6.30;;;5.00;;
54599;SDS011;40500;51.084;16.958;2022-07-06T00:07:43;4.80;;;4.20;;
54599;SDS011;40500;51.084;16.958;2022-07-06T00:10:13;4.50;;;4.10;;
54599;SDS011;40500;51.084;16.958;2022-07-06T00:12:44;6.60;;;5.40;;
54599;SDS011;40500;51.084;16.958;2022-07-06T00:15:14;6.80;;;4.50;;
54599;SDS011;40500;51.084;16.958;2022-07-06T00:17:45;11.40;;;4.40;;
54599;SDS011;40500;51.084;16.958;2022-07-06T00:20:15;4.70;;;4.10;;
54599;SDS011;40500;51.084;16.958;2022-07-06T00:22:46;5.10;;;4.30;;
54599;SDS011;40500;51.084;16.958;2022-07-06T00:25:16;5.40;;;4.30;;
54599;SDS011;40500;51.084;16.958;2022-07-06T00:27:46;5.00;;;4.30;;
54599;SDS011;40500;51.084;16.958;2022-07-06T00:30:17;4.90;;;4.00;;
54599;SDS011;40500;51.084;16.958;2022-07-06T00:32:48;6.40;;;4.90;;
54599;SDS011;40500;51.084;16.958;2022-07-06T00:35:18;4.20;;;3.80;;
54599;SDS011;40500;51.084;16.958;2022-07-06T00:37:50;5.60;;;4.30;;
54599;SDS011;40500;51.084;16.958;2022-07-06T00:40:21;6.10;;;4.10;;
54599;SDS011;40500;51.084;16.958;2022-07-06T00:42:54;5.30;;;4.60;;
54599;SDS011;40500;51.084;16.958;2022-07-06T00:45:25;7.60;;;4.40;;
54599;SDS011;40500;51.084;16.958;2022-07-06T00:47:55;6.30;;;4.20;;
54599;SDS011;40500;51.084;16.958;2022-07-06T00:50:25;9.60;;;4.20;;
54599;SDS011;40500;51.084;16.958;2022-07-06T00:52:58;6.00;;;4.70;;
54599;SDS011;40500;51.084;16.958;2022-07-06T00:55:32;5.80;;;4.40;;
54599;SDS011;40500;51.084;16.958;2022-07-06T00:58:04;6.50;;;5.30;;
54599;SDS011;40500;51.084;16.958;2022-07-06T01:00:35;6.60;;;5.10;;
54599;SDS011;40500;51.084;16.958;2022-07-06T01:03:06;5.50;;;4.90;;
54599;SDS011;40500;51.084;16.958;2022-07-06T01:05:36;7.10;;;4.70;;
54599;SDS011;40500;51.084;16.958;2022-07-06T01:08:07;4.50;;;4.10;;
54599;SDS011;40500;51.084;16.958;2022-07-06T01:10:37;11.40;;;4.90;;
54599;SDS011;40500;51.084;16.958;2022-07-06T01:13:08;7.80;;;4.70;;
54599;SDS011;40500;51.084;16.958;2022-07-06T01:15:38;7.20;;;4.70;;
54599;SDS011;40500;51.084;16.958;2022-07-06T01:18:10;4.40;;;4.10;;
54599;SDS011;40500;51.084;16.958;2022-07-06T01:20:41;7.90;;;4.50;;
54599;SDS011;40500;51.084;16.958;2022-07-06T01:23:12;5.20;;;4.10;;
54599;SDS011;40500;51.084;16.958;2022-07-06T01:25:42;7.10;;;4.70;;
54599;SDS011;40500;51.084;16.958;2022-07-06T01:28:13;6.80;;;4.90;;
54599;SDS011;40500;51.084;16.958;2022-07-06T01:30:43;9.10;;;4.90;;
54599;SDS011;40500;51.084;16.958;2022-07-06T01:33:13;6.40;;;5.20;;
54599;SDS011;40500;51.084;16.958;2022-07-06T01:35:44;9.50;;;5.30;;
54599;SDS011;40500;51.084;16.958;2022-07-06T01:38:22;7.30;;;5.20;;
54599;SDS011;40500;51.084;16.958;2022-07-06T01:40:53;7.60;;;5.20;;
54599;SDS011;40500;51.084;16.958;2022-07-06T01:43:23;7.60;;;5.00;;
54599;SDS011;40500;51.084;16.958;2022-07-06T01:45:53;7.00;;;4.70;;
54599;SDS011;40500;51.084;16.958;2022-07-06T01:48:24;11.60;;;4.90;;
54599;SDS011;40500;51.084;16.958;2022-07-06T01:50:54;8.00;;;4.40;;
54599;SDS011;40500;51.084;16.958;2022-07-06T01:53:25;9.70;;;5.10;;
54599;SDS011;40500;51.084;16.958;2022-07-06T01:55:55;11.10;;;6.00;;
54599;SDS011;40500;51.084;16.958;2022-07-06T01:58:26;5.70;;;5.10;;
54599;SDS011;40500;51.084;16.958;2022-07-06T02:00:56;6.60;;;4.60;;
54599;SDS011;40500;51.084;16.958;2022-07-06T02:03:27;6.40;;;5.60;;
54599;SDS011;40500;51.084;16.958;2022-07-06T02:05:58;10.10;;;5.00;;
54599;SDS011;40500;51.084;16.958;2022-07-06T02:08:28;7.90;;;5.10;;
54599;SDS011;40500;51.084;16.958;2022-07-06T02:10:59;9.50;;;5.40;;
54599;SDS011;40500;51.084;16.958;2022-07-06T02:13:30;11.50;;;6.00;;
54599;SDS011;40500;51.084;16.958;2022-07-06T02:16:00;6.30;;;5.40;;
54599;SDS011;40500;51.084;16.958;2022-07-06T02:18:32;7.20;;;6.40;;
54599;SDS011;40500;51.084;16.958;2022-07-06T02:21:02;11.10;;;6.90;;
54599;SDS011;40500;51.084;16.958;2022-07-06T02:23:33;9.50;;;6.30;;
54599;SDS011;40500;51.084;16.958;2022-07-06T02:26:04;12.50;;;5.90;;
54599;SDS011;40500;51.084;16.958;2022-07-06T02:28:34;8.50;;;5.70;;
54599;SDS011;40500;51.084;16.958;2022-07-06T02:31:05;8.30;;;6.30;;
54599;SDS011;40500;51.084;16.958;2022-07-06T02:33:35;7.70;;;6.00;;
54599;SDS011;40500;51.084;16.958;2022-07-06T02:36:06;13.20;;;6.60;;
54599;SDS011;40500;51.084;16.958;2022-07-06T02:38:37;13.00;;;6.50;;
54599;SDS011;40500;51.084;16.958;2022-07-06T02:41:07;13.90;;;6.20;;
54599;SDS011;40500;51.084;16.958;2022-07-06T02:43:38;12.00;;;5.80;;
54599;SDS011;40500;51.084;16.958;2022-07-06T02:46:09;19.30;;;6.40;;
54599;SDS011;40500;51.084;16.958;2022-07-06T02:48:39;11.90;;;6.10;;
54599;SDS011;40500;51.084;16.958;2022-07-06T02:51:09;8.40;;;5.90;;
54599;SDS011;40500;51.084;16.958;2022-07-06T02:53:40;11.10;;;6.20;;
54599;SDS011;40500;51.084;16.958;2022-07-06T02:56:10;7.50;;;5.50;;
54599;SDS011;40500;51.084;16.958;2022-07-06T02:58:41;7.00;;;5.50;;
54599;SDS011;40500;51.084;16.958;2022-07-06T03:01:11;9.90;;;5.90;;
54599;SDS011;40500;51.084;16.958;2022-07-06T03:03:42;13.90;;;6.30;;
54599;SDS011;40500;51.084;16.958;2022-07-06T03:06:12;8.20;;;6.30;;
54599;SDS011;40500;51.084;16.958;2022-07-06T03:08:43;9.70;;;6.40;;
54599;SDS011;40500;51.084;16.958;2022-07-06T03:11:13;8.40;;;6.20;;
54599;SDS011;40500;51.084;16.958;2022-07-06T03:13:43;9.90;;;6.50;;
54599;SDS011;40500;51.084;16.958;2022-07-06T03:16:14;14.50;;;7.50;;
54599;SDS011;40500;51.084;16.958;2022-07-06T03:18:44;15.60;;;7.50;;
54599;SDS011;40500;51.084;16.958;2022-07-06T03:21:15;10.30;;;7.80;;
54599;SDS011;40500;51.084;16.958;2022-07-06T03:23:45;9.00;;;7.50;;
54599;SDS011;40500;51.084;16.958;2022-07-06T03:26:15;10.30;;;7.20;;
54599;SDS011;40500;51.084;16.958;2022-07-06T03:28:46;10.40;;;8.00;;
54599;SDS011;40500;51.084;16.958;2022-07-06T03:31:17;10.80;;;7.70;;
54599;SDS011;40500;51.084;16.958;2022-07-06T03:33:47;9.80;;;7.60;;
54599;SDS011;40500;51.084;16.958;2022-07-06T03:36:17;9.20;;;6.50;;
54599;SDS011;40500;51.084;16.958;2022-07-06T03:38:48;9.50;;;7.10;;
54599;SDS011;40500;51.084;16.958;2022-07-06T03:41:18;11.40;;;7.10;;
54599;SDS011;40500;51.084;16.958;2022-07-06T03:43:48;13.90;;;6.30;;
54599;SDS011;40500;51.084;16.958;2022-07-06T03:46:19;14.60;;;6.20;;
54599;SDS011;40500;51.084;16.958;2022-07-06T03:48:49;8.40;;;5.20;;
54599;SDS011;40500;51.084;16.958;2022-07-06T03:51:20;9.70;;;5.10;;
54599;SDS011;40500;51.084;16.958;2022-07-06T03:53:50;8.50;;;4.90;;
54599;SDS011;40500;51.084;16.958;2022-07-06T03:56:20;5.50;;;4.70;;
54599;SDS011;40500;51.084;16.958;2022-07-06T03:58:57;10.00;;;4.80;;
54599;SDS011;40500;51.084;16.958;2022-07-06T04:01:29;8.00;;;4.80;;
54599;SDS011;40500;51.084;16.958;2022-07-06T04:03:59;8.40;;;4.20;;
54599;SDS011;40500;51.084;16.958;2022-07-06T04:06:30;4.90;;;4.10;;
54599;SDS011;40500;51.084;16.958;2022-07-06T04:09:02;4.60;;;4.20;;
54599;SDS011;40500;51.084;16.958;2022-07-06T04:11:32;6.50;;;3.50;;
54599;SDS011;40500;51.084;16.958;2022-07-06T04:14:03;9.90;;;4.30;;
54599;SDS011;40500;51.084;16.958;2022-07-06T04:16:33;6.20;;;3.90;;
54599;SDS011;40500;51.084;16.958;2022-07-06T04:19:04;6.20;;;3.80;;
54599;SDS011;40500;51.084;16.958;2022-07-06T04:21:34;6.80;;;4.30;;
54599;SDS011;40500;51.084;16.958;2022-07-06T04:24:05;7.30;;;3.30;;
54599;SDS011;40500;51.084;16.958;2022-07-06T04:26:36;3.90;;;3.00;;
54599;SDS011;40500;51.084;16.958;2022-07-06T04:29:06;7.80;;;3.10;;
54599;SDS011;40500;51.084;16.958;2022-07-06T04:31:36;3.30;;;3.00;;
54599;SDS011;40500;51.084;16.958;2022-07-06T04:34:07;3.40;;;2.80;;
54599;SDS011;40500;51.084;16.958;2022-07-06T04:36:37;6.40;;;2.30;;
54599;SDS011;40500;51.084;16.958;2022-07-06T04:39:07;3.60;;;3.20;;
54599;SDS011;40500;51.084;16.958;2022-07-06T04:41:37;6.40;;;2.60;;
54599;SDS011;40500;51.084;16.958;2022-07-06T04:44:08;2.60;;;2.40;;
54599;SDS011;40500;51.084;16.958;2022-07-06T04:46:38;4.80;;;3.10;;
54599;SDS011;40500;51.084;16.958;2022-07-06T04:49:08;3.30;;;2.70;;
54599;SDS011;40500;51.084;16.958;2022-07-06T04:51:39;2.70;;;2.30;;
54599;SDS011;40500;51.084;16.958;2022-07-06T04:54:09;5.40;;;2.40;;
54599;SDS011;40500;51.084;16.958;2022-07-06T04:56:40;2.70;;;2.00;;
54599;SDS011;40500;51.084;16.958;2022-07-06T04:59:12;2.10;;;1.90;;
54599;SDS011;40500;51.084;16.958;2022-07-06T05:01:43;2.70;;;1.90;;
54599;SDS011;40500;51.084;16.958;2022-07-06T05:04:13;2.40;;;2.00;;
54599;SDS011;40500;51.084;16.958;2022-07-06T05:06:46;3.50;;;2.00;;
54599;SDS011;40500;51.084;16.958;2022-07-06T05:09:16;3.70;;;1.80;;
54599;SDS011;40500;51.084;16.958;2022-07-06T05:11:46;4.40;;;2.30;;
54599;SDS011;40500;51.084;16.958;2022-07-06T05:14:17;2.90;;;2.60;;
54599;SDS011;40500;51.084;16.958;2022-07-06T05:16:47;4.30;;;2.70;;
54599;SDS011;40500;51.084;16.958;2022-07-06T05:19:18;2.30;;;2.10;;
54599;SDS011;40500;51.084;16.958;2022-07-06T05:21:48;3.50;;;2.20;;
54599;SDS011;40500;51.084;16.958;2022-07-06T05:24:19;4.00;;;2.00;;
54599;SDS011;40500;51.084;16.958;2022-07-06T05:26:49;8.00;;;2.70;;
54599;SDS011;40500;51.084;16.958;2022-07-06T05:29:20;6.90;;;2.80;;
54599;SDS011;40500;51.084;16.958;2022-07-06T05:31:50;2.90;;;2.60;;
54599;SDS011;40500;51.084;16.958;2022-07-06T05:34:21;3.30;;;2.70;;
54599;SDS011;40500;51.084;16.958;2022-07-06T05:36:54;5.20;;;2.80;;
54599;SDS011;40500;51.084;16.958;2022-07-06T05:39:24;11.00;;;2.60;;
54599;SDS011;40500;51.084;16.958;2022-07-06T05:41:55;19.20;;;3.70;;
54599;SDS011;40500;51.084;16.958;2022-07-06T05:44:25;12.50;;;3.50;;
54599;SDS011;40500;51.084;16.958;2022-07-06T05:46:56;7.20;;;3.20;;
54599;SDS011;40500;51.084;16.958;2022-07-06T05:49:46;9.60;;;3.70;;
54599;SDS011;40500;51.084;16.958;2022-07-06T05:52:34;9.90;;;3.50;;
54599;SDS011;40500;51.084;16.958;2022-07-06T05:55:06;5.50;;;3.60;;
54599;SDS011;40500;51.084;16.958;2022-07-06T05:57:37;3.70;;;2.60;;
54599;SDS011;40500;51.084;16.958;2022-07-06T06:00:09;3.80;;;2.80;;
54599;SDS011;40500;51.084;16.958;2022-07-06T06:02:40;2.60;;;2.40;;
54599;SDS011;40500;51.084;16.958;2022-07-06T06:05:13;6.80;;;3.20;;
54599;SDS011;40500;51.084;16.958;2022-07-06T06:07:51;14.90;;;4.20;;
54599;SDS011;40500;51.084;16.958;2022-07-06T06:10:21;12.70;;;3.00;;
54599;SDS011;40500;51.084;16.958;2022-07-06T06:12:52;3.30;;;3.00;;
54599;SDS011;40500;51.084;16.958;2022-07-06T06:15:22;4.90;;;3.20;;
54599;SDS011;40500;51.084;16.958;2022-07-06T06:17:53;6.60;;;2.90;;
54599;SDS011;40500;51.084;16.958;2022-07-06T06:20:23;3.80;;;3.50;;
54599;SDS011;40500;51.084;16.958;2022-07-06T06:22:55;5.00;;;3.50;;
54599;SDS011;40500;51.084;16.958;2022-07-06T06:25:30;3.70;;;2.60;;
54599;SDS011;40500;51.084;16.958;2022-07-06T06:28:03;4.20;;;3.10;;
54599;SDS011;40500;51.084;16.958;2022-07-06T06:30:35;4.70;;;2.60;;
54599;SDS011;40500;51.084;16.958;2022-07-06T06:33:10;6.50;;;3.10;;
54599;SDS011;40500;51.084;16.958;2022-07-06T06:35:43;2.90;;;2.70;;
54599;SDS011;40500;51.084;16.958;2022-07-06T06:38:14;3.00;;;2.70;;
54599;SDS011;40500;51.084;16.958;2022-07-06T06:40:46;3.60;;;3.00;;
54599;SDS011;40500;51.084;16.958;2022-07-06T06:43:16;2.70;;;2.50;;
54599;SDS011;40500;51.084;16.958;2022-07-06T06:45:46;3.30;;;2.70;;
54599;SDS011;40500;51.084;16.958;2022-07-06T06:48:17;5.80;;;2.10;;
54599;SDS011;40500;51.084;16.958;2022-07-06T06:50:47;3.20;;;2.10;;
54599;SDS011;40500;51.084;16.958;2022-07-06T06:53:18;2.30;;;2.20;;
54599;SDS011;40500;51.084;16.958;2022-07-06T06:55:48;2.70;;;2.50;;
54599;SDS011;40500;51.084;16.958;2022-07-06T06:58:19;6.70;;;2.40;;
54599;SDS011;40500;51.084;16.958;2022-07-06T07:00:50;3.40;;;2.70;;
54599;SDS011;40500;51.084;16.958;2022-07-06T07:03:20;2.40;;;2.20;;
54599;SDS011;40500;51.084;16.958;2022-07-06T07:05:51;2.60;;;2.40;;
54599;SDS011;40500;51.084;16.958;2022-07-06T07:08:21;3.10;;;2.60;;
54599;SDS011;40500;51.084;16.958;2022-07-06T07:10:52;2.60;;;2.40;;
54599;SDS011;40500;51.084;16.958;2022-07-06T07:13:23;7.80;;;2.40;;
54599;SDS011;40500;51.084;16.958;2022-07-06T07:15:54;2.10;;;2.00;;
54599;SDS011;40500;51.084;16.958;2022-07-06T07:18:25;3.00;;;2.50;;
54599;SDS011;40500;51.084;16.958;2022-07-06T07:20:56;3.80;;;2.20;;
54599;SDS011;40500;51.084;16.958;2022-07-06T07:23:27;3.10;;;2.60;;
54599;SDS011;40500;51.084;16.958;2022-07-06T07:25:58;3.30;;;2.90;;
54599;SDS011;40500;51.084;16.958;2022-07-06T07:28:28;5.30;;;3.40;;
54599;SDS011;40500;51.084;16.958;2022-07-06T07:30:59;3.90;;;3.00;;
54599;SDS011;40500;51.084;16.958;2022-07-06T07:33:29;5.20;;;3.40;;
54599;SDS011;40500;51.084;16.958;2022-07-06T07:36:00;3.60;;;2.50;;
54599;SDS011;40500;51.084;16.958;2022-07-06T07:38:30;3.20;;;2.80;;
54599;SDS011;40500;51.084;16.958;2022-07-06T07:41:01;5.00;;;2.90;;
54599;SDS011;40500;51.084;16.958;2022-07-06T07:43:33;4.30;;;2.80;;
54599;SDS011;40500;51.084;16.958;2022-07-06T07:46:03;5.20;;;3.00;;
54599;SDS011;40500;51.084;16.958;2022-07-06T07:48:34;5.60;;;2.40;;
54599;SDS011;40500;51.084;16.958;2022-07-06T07:51:04;3.10;;;2.90;;
54599;SDS011;40500;51.084;16.958;2022-07-06T07:53:35;3.20;;;2.30;;
54599;SDS011;40500;51.084;16.958;2022-07-06T07:56:05;6.20;;;2.50;;
54599;SDS011;40500;51.084;16.958;2022-07-06T07:58:36;4.40;;;2.20;;
54599;SDS011;40500;51.084;16.958;2022-07-06T08:01:06;3.30;;;2.70;;
54599;SDS011;40500;51.084;16.958;2022-07-06T08:03:37;2.50;;;2.30;;
54599;SDS011;40500;51.084;16.958;2022-07-06T08:06:07;2.30;;;2.00;;
54599;SDS011;40500;51.084;16.958;2022-07-06T08:08:38;4.40;;;2.10;;
54599;SDS011;40500;51.084;16.958;2022-07-06T08:11:08;2.20;;;1.70;;
54599;SDS011;40500;51.084;16.958;2022-07-06T08:13:45;2.90;;;1.80;;
54599;SDS011;40500;51.084;16.958;2022-07-06T08:16:16;1.70;;;1.60;;
54599;SDS011;40500;51.084;16.958;2022-07-06T08:18:46;1.60;;;1.50;;
54599;SDS011;40500;51.084;16.958;2022-07-06T08:21:17;2.40;;;1.20;;
54599;SDS011;40500;51.084;16.958;2022-07-06T08:23:52;2.20;;;1.50;;
54599;SDS011;40500;51.084;16.958;2022-07-06T08:26:23;4.80;;;1.80;;
54599;SDS011;40500;51.084;16.958;2022-07-06T08:28:53;1.60;;;1.50;;
54599;SDS011;40500;51.084;16.958;2022-07-06T08:31:24;2.40;;;1.80;;
54599;SDS011;40500;51.084;16.958;2022-07-06T08:34:15;1.90;;;1.30;;
54599;SDS011;40500;51.084;16.958;2022-07-06T08:36:45;3.20;;;1.70;;
54599;SDS011;40500;51.084;16.958;2022-07-06T08:39:16;1.60;;;1.50;;
54599;SDS011;40500;51.084;16.958;2022-07-06T08:41:46;1.80;;;1.70;;
54599;SDS011;40500;51.084;16.958;2022-07-06T08:44:17;2.00;;;1.60;;
54599;SDS011;40500;51.084;16.958;2022-07-06T08:46:48;2.90;;;1.70;;
54599;SDS011;40500;51.084;16.958;2022-07-06T08:49:20;2.00;;;1.80;;
54599;SDS011;40500;51.084;16.958;2022-07-06T08:51:52;3.10;;;1.50;;
54599;SDS011;40500;51.084;16.958;2022-07-06T08:54:23;2.90;;;1.60;;
54599;SDS011;40500;51.084;16.958;2022-07-06T08:56:55;2.40;;;1.50;;
54599;SDS011;40500;51.084;16.958;2022-07-06T08:59:27;9.00;;;1.90;;
54599;SDS011;40500;51.084;16.958;2022-07-06T09:01:57;1.30;;;1.20;;
54599;SDS011;40500;51.084;16.958;2022-07-06T09:04:28;2.10;;;1.20;;
54599;SDS011;40500;51.084;16.958;2022-07-06T09:07:00;4.20;;;1.30;;
54599;SDS011;40500;51.084;16.958;2022-07-06T09:09:31;2.80;;;1.60;;
54599;SDS011;40500;51.084;16.958;2022-07-06T09:12:06;2.40;;;1.30;;
54599;SDS011;40500;51.084;16.958;2022-07-06T09:14:40;6.20;;;1.70;;
54599;SDS011;40500;51.084;16.958;2022-07-06T09:17:11;3.40;;;1.70;;
54599;SDS011;40500;51.084;16.958;2022-07-06T09:19:44;1.70;;;1.50;;
54599;SDS011;40500;51.084;16.958;2022-07-06T09:22:25;2.70;;;1.70;;
54599;SDS011;40500;51.084;16.958;2022-07-06T09:25:02;2.40;;;1.80;;
54599;SDS011;40500;51.084;16.958;2022-07-06T09:27:38;1.60;;;1.30;;
54599;SDS011;40500;51.084;16.958;2022-07-06T09:30:10;2.00;;;1.20;;
54599;SDS011;40500;51.084;16.958;2022-07-06T09:32:42;2.30;;;1.50;;
54599;SDS011;40500;51.084;16.958;2022-07-06T09:35:20;1.70;;;1.60;;
54599;SDS011;40500;51.084;16.958;2022-07-06T09:38:02;4.00;;;1.70;;
54599;SDS011;40500;51.084;16.958;2022-07-06T09:40:36;4.00;;;1.60;;
54599;SDS011;40500;51.084;16.958;2022-07-06T09:43:11;3.60;;;1.50;;
54599;SDS011;40500;51.084;16.958;2022-07-06T09:45:44;1.40;;;1.20;;
54599;SDS011;40500;51.084;16.958;2022-07-06T09:48:17;1.60;;;1.50;;
54599;SDS011;40500;51.084;16.958;2022-07-06T09:50:50;4.20;;;1.50;;
54599;SDS011;40500;51.084;16.958;2022-07-06T09:53:22;1.50;;;1.30;;
54599;SDS011;40500;51.084;16.958;2022-07-06T09:55:54;4.00;;;1.50;;
54599;SDS011;40500;51.084;16.958;2022-07-06T09:58:26;3.50;;;1.70;;
54599;SDS011;40500;51.084;16.958;2022-07-06T10:01:26;1.90;;;1.20;;
54599;SDS011;40500;51.084;16.958;2022-07-06T10:03:58;3.20;;;1.30;;
54599;SDS011;40500;51.084;16.958;2022-07-06T10:06:29;1.60;;;1.30;;
54599;SDS011;40500;51.084;16.958;2022-07-06T10:08:59;1.40;;;1.00;;
54599;SDS011;40500;51.084;16.958;2022-07-06T10:11:37;3.70;;;1.10;;
54599;SDS011;40500;51.084;16.958;2022-07-06T10:14:09;1.10;;;1.00;;
54599;SDS011;40500;51.084;16.958;2022-07-06T10:16:42;3.50;;;1.40;;
54599;SDS011;40500;51.084;16.958;2022-07-06T10:19:14;1.90;;;1.10;;
54599;SDS011;40500;51.084;16.958;2022-07-06T10:21:46;1.20;;;1.10;;
54599;SDS011;40500;51.084;16.958;2022-07-06T10:24:17;2.50;;;1.10;;
54599;SDS011;40500;51.084;16.958;2022-07-06T10:26:48;3.20;;;1.30;;
54599;SDS011;40500;51.084;16.958;2022-07-06T10:29:20;3.00;;;1.00;;
54599;SDS011;40500;51.084;16.958;2022-07-06T10:31:52;1.50;;;1.00;;
54599;SDS011;40500;51.084;16.958;2022-07-06T10:34:23;1.50;;;1.00;;
54599;SDS011;40500;51.084;16.958;2022-07-06T10:36:54;3.50;;;0.90;;
54599;SDS011;40500;51.084;16.958;2022-07-06T10:39:35;0.90;;;0.90;;
54599;SDS011;40500;51.084;16.958;2022-07-06T10:48:24;1.20;;;1.10;;
54599;SDS011;40500;51.084;16.958;2022-07-06T10:51:02;2.50;;;1.10;;
54599;SDS011;40500;51.084;16.958;2022-07-06T10:53:34;1.70;;;1.20;;
54599;SDS011;40500;51.084;16.958;2022-07-06T10:56:07;2.30;;;1.10;;
54599;SDS011;40500;51.084;16.958;2022-07-06T10:58:47;1.60;;;1.00;;
54599;SDS011;40500;51.084;16.958;2022-07-06T11:01:20;1.90;;;1.20;;
54599;SDS011;40500;51.084;16.958;2022-07-06T11:04:05;1.80;;;0.80;;
54599;SDS011;40500;51.084;16.958;2022-07-06T11:06:38;1.20;;;1.00;;
54599;SDS011;40500;51.084;16.958;2022-07-06T11:09:09;3.90;;;1.30;;
54599;SDS011;40500;51.084;16.958;2022-07-06T11:11:42;2.00;;;1.10;;
54599;SDS011;40500;51.084;16.958;2022-07-06T11:14:16;3.50;;;1.40;;
54599;SDS011;40500;51.084;16.958;2022-07-06T11:17:01;2.30;;;1.10;;
54599;SDS011;40500;51.084;16.958;2022-07-06T11:19:33;3.20;;;1.40;;
54599;SDS011;40500;51.084;16.958;2022-07-06T11:22:06;2.40;;;1.20;;
54599;SDS011;40500;51.084;16.958;2022-07-06T11:24:39;3.80;;;1.10;;
54599;SDS011;40500;51.084;16.958;2022-07-06T11:27:10;3.80;;;1.40;;
54599;SDS011;40500;51.084;16.958;2022-07-06T11:29:40;1.10;;;0.90;;
54599;SDS011;40500;51.084;16.958;2022-07-06T11:32:12;2.60;;;1.10;;
54599;SDS011;40500;51.084;16.958;2022-07-06T11:34:43;2.20;;;1.10;;
54599;SDS011;40500;51.084;16.958;2022-07-06T11:37:14;1.60;;;1.10;;
54599;SDS011;40500;51.084;16.958;2022-07-06T11:39:46;4.40;;;1.10;;
54599;SDS011;40500;51.084;16.958;2022-07-06T11:42:17;2.50;;;1.00;;
54599;SDS011;40500;51.084;16.958;2022-07-06T11:44:48;1.90;;;1.00;;
54599;SDS011;40500;51.084;16.958;2022-07-06T11:47:18;1.60;;;1.10;;
54599;SDS011;40500;51.084;16.958;2022-07-06T11:49:51;3.50;;;1.20;;
54599;SDS011;40500;51.084;16.958;2022-07-06T11:52:22;4.50;;;1.00;;
54599;SDS011;40500;51.084;16.958;2022-07-06T11:54:58;1.60;;;1.10;;
54599;SDS011;40500;51.084;16.958;2022-07-06T11:57:28;6.00;;;1.30;;
54599;SDS011;40500;51.084;16.958;2022-07-06T12:00:01;1.80;;;0.90;;
54599;SDS011;40500;51.084;16.958;2022-07-06T12:02:32;3.40;;;0.90;;
54599;SDS011;40500;51.084;16.958;2022-07-06T12:05:03;1.40;;;0.90;;
54599;SDS011;40500;51.084;16.958;2022-07-06T12:07:35;1.20;;;0.60;;
54599;SDS011;40500;51.084;16.958;2022-07-06T12:10:06;4.90;;;1.50;;
54599;SDS011;40500;51.084;16.958;2022-07-06T12:12:37;1.70;;;0.80;;
54599;SDS011;40500;51.084;16.958;2022-07-06T12:15:08;2.50;;;0.90;;
54599;SDS011;40500;51.084;16.958;2022-07-06T12:17:39;2.40;;;1.00;;
54599;SDS011;40500;51.084;16.958;2022-07-06T12:20:15;3.40;;;1.00;;
54599;SDS011;40500;51.084;16.958;2022-07-06T12:22:46;2.90;;;0.70;;
54599;SDS011;40500;51.084;16.958;2022-07-06T12:25:30;0.80;;;0.70;;
54599;SDS011;40500;51.084;16.958;2022-07-06T12:28:00;1.30;;;0.70;;
54599;SDS011;40500;51.084;16.958;2022-07-06T12:30:31;0.60;;;0.60;;
54599;SDS011;40500;51.084;16.958;2022-07-06T12:33:11;1.50;;;0.70;;
54599;SDS011;40500;51.084;16.958;2022-07-06T12:35:44;2.70;;;0.70;;
54599;SDS011;40500;51.084;16.958;2022-07-06T12:38:22;1.30;;;0.70;;
54599;SDS011;40500;51.084;16.958;2022-07-06T12:40:53;3.40;;;0.60;;
54599;SDS011;40500;51.084;16.958;2022-07-06T12:43:36;0.70;;;0.70;;
54599;SDS011;40500;51.084;16.958;2022-07-06T12:49:00;2.20;;;0.80;;
54599;SDS011;40500;51.084;16.958;2022-07-06T12:51:50;4.40;;;0.50;;
54599;SDS011;40500;51.084;16.958;2022-07-06T12:54:22;2.30;;;0.70;;
54599;SDS011;40500;51.084;16.958;2022-07-06T12:57:04;1.30;;;0.70;;
54599;SDS011;40500;51.084;16.958;2022-07-06T12:59:38;1.90;;;0.50;;
54599;SDS011;40500;51.084;16.958;2022-07-06T13:02:10;0.60;;;0.50;;
54599;SDS011;40500;51.084;16.958;2022-07-06T13:05:09;1.20;;;0.40;;
54599;SDS011;40500;51.084;16.958;2022-07-06T13:07:44;1.80;;;0.70;;
54599;SDS011;40500;51.084;16.958;2022-07-06T13:10:16;3.00;;;0.70;;
54599;SDS011;40500;51.084;16.958;2022-07-06T13:12:47;3.40;;;0.70;;
54599;SDS011;40500;51.084;16.958;2022-07-06T13:15:18;1.00;;;0.70;;
54599;SDS011;40500;51.084;16.958;2022-07-06T13:17:49;1.70;;;0.70;;
54599;SDS011;40500;51.084;16.958;2022-07-06T13:20:19;2.90;;;0.70;;
54599;SDS011;40500;51.084;16.958;2022-07-06T13:22:51;1.50;;;0.90;;
54599;SDS011;40500;51.084;16.958;2022-07-06T13:25:21;1.20;;;0.60;;
54599;SDS011;40500;51.084;16.958;2022-07-06T13:27:52;2.30;;;0.70;;
54599;SDS011;40500;51.084;16.958;2022-07-06T13:30:22;3.40;;;0.60;;
54599;SDS011;40500;51.084;16.958;2022-07-06T13:32:52;1.00;;;0.70;;
54599;SDS011;40500;51.084;16.958;2022-07-06T13:35:24;1.00;;;0.40;;
54599;SDS011;40500;51.084;16.958;2022-07-06T13:37:54;1.30;;;0.80;;
54599;SDS011;40500;51.084;16.958;2022-07-06T13:40:26;0.50;;;0.50;;
54599;SDS011;40500;51.084;16.958;2022-07-06T13:42:56;0.30;;;0.30;;
54599;SDS011;40500;51.084;16.958;2022-07-06T13:45:26;4.10;;;0.70;;
54599;SDS011;40500;51.084;16.958;2022-07-06T13:47:57;0.60;;;0.60;;
54599;SDS011;40500;51.084;16.958;2022-07-06T13:50:27;0.70;;;0.50;;
54599;SDS011;40500;51.084;16.958;2022-07-06T13:53:00;2.00;;;0.50;;
54599;SDS011;40500;51.084;16.958;2022-07-06T13:55:30;2.20;;;0.70;;
54599;SDS011;40500;51.084;16.958;2022-07-06T13:58:01;1.60;;;0.80;;
54599;SDS011;40500;51.084;16.958;2022-07-06T14:00:31;2.30;;;0.80;;
54599;SDS011;40500;51.084;16.958;2022-07-06T14:03:02;1.30;;;0.60;;
54599;SDS011;40500;51.084;16.958;2022-07-06T14:05:33;2.80;;;0.60;;
54599;SDS011;40500;51.084;16.958;2022-07-06T14:08:04;1.10;;;0.70;;
54599;SDS011;40500;51.084;16.958;2022-07-06T14:10:34;1.80;;;0.50;;
54599;SDS011;40500;51.084;16.958;2022-07-06T14:13:05;0.90;;;0.40;;
54599;SDS011;40500;51.084;16.958;2022-07-06T14:15:35;2.60;;;0.70;;
54599;SDS011;40500;51.084;16.958;2022-07-06T14:18:06;3.10;;;0.60;;
54599;SDS011;40500;51.084;16.958;2022-07-06T14:20:36;1.20;;;0.50;;
54599;SDS011;40500;51.084;16.958;2022-07-06T14:23:07;2.50;;;0.60;;
54599;SDS011;40500;51.084;16.958;2022-07-06T14:25:37;1.70;;;0.60;;
54599;SDS011;40500;51.084;16.958;2022-07-06T14:28:11;4.40;;;0.80;;
54599;SDS011;40500;51.084;16.958;2022-07-06T14:30:41;2.70;;;0.70;;
54599;SDS011;40500;51.084;16.958;2022-07-06T14:33:13;0.60;;;0.50;;
54599;SDS011;40500;51.084;16.958;2022-07-06T14:35:45;1.00;;;0.50;;
54599;SDS011;40500;51.084;16.958;2022-07-06T14:38:16;1.10;;;0.50;;
54599;SDS011;40500;51.084;16.958;2022-07-06T14:40:48;2.20;;;0.80;;
54599;SDS011;40500;51.084;16.958;2022-07-06T14:43:18;2.80;;;0.80;;
54599;SDS011;40500;51.084;16.958;2022-07-06T14:45:49;2.30;;;0.70;;
54599;SDS011;40500;51.084;16.958;2022-07-06T14:48:21;1.70;;;0.90;;
54599;SDS011;40500;51.084;16.958;2022-07-06T14:50:51;0.90;;;0.70;;
54599;SDS011;40500;51.084;16.958;2022-07-06T14:53:22;1.40;;;0.90;;
54599;SDS011;40500;51.084;16.958;2022-07-06T14:55:53;1.30;;;0.90;;
54599;SDS011;40500;51.084;16.958;2022-07-06T14:58:23;3.00;;;1.10;;
54599;SDS011;40500;51.084;16.958;2022-07-06T15:00:53;3.20;;;0.90;;
54599;SDS011;40500;51.084;16.958;2022-07-06T15:03:26;1.00;;;0.80;;
54599;SDS011;40500;51.084;16.958;2022-07-06T15:05:58;1.70;;;1.00;;
54599;SDS011;40500;51.084;16.958;2022-07-06T15:08:28;3.20;;;1.10;;